アンタナナリボ の空港の天気 - METARとTAF

イヴァト空港(アンタナナリボ) ( FMMI / TNR ) - マダガスカル アンタナナリボ
飛行場実況気象(Metar)
観測時間05/26 02:30 EAT (05/25 23:30 UTC)
風向・風速北東 2m/s
視程10km以上
天気現象
全天の8割程度の雲 雲底高度 610m
気温14℃
湿度94%
気圧1022hPa
METARFMMI 252330Z 05004KT 9999 BKN020 14/13 Q1022 NOSIG
過去の天気等 Google飛行場航空写真 Wunderground天気予報

過去48時間のMETAR

飛行場予報(TAF)
発表時間: -
26日4時 EAT から 確率 30% で
視程2000m
天気現象もや
27日3時 EAT から 確率 40% で
視程500m
天気現象
全天の8割程度の雲 雲底高度 150m

FMMI 252300Z 2600/2706 08005KT 9999 FEW010 BKN020
PROB30 2601/2606 2000 BR
PROB40 2700/2705 0500 FG BKN005